KISW/ISW METAR and TAF weather

Enter ICAO airport designator
Station Type Date Time Source
KISW METAR 2019/08/21 22:54 UTC NOAA

KISW 212254Z AUTO 33009KT 10SM BKN055 23/11 A3001 RMK AO2 SLP158 T02280106


Station Type Date Time Source
KISW Decoded METAR 2019/08/21 22:54 UTC NOAA

Station name not available
Aug 21, 2019 - 06:54 PM EDT / 2019.08.21 2254 UTC
Wind: from the NNW (330 degrees) at 10 MPH (9 KT):0
Visibility: 10 mile(s):0
Sky conditions: mostly cloudy
Temperature: 73.0 F (22.8 C)
Dew Point: 51.1 F (10.6 C)
Relative Humidity: 46%
Pressure (altimeter): 30.01 in. Hg (1016 hPa)
ob: KISW 212254Z AUTO 33009KT 10SM BKN055 23/11 A3001 RMK AO2 SLP158 T02280106
cycle: 23

Station Type Date Time Source
KISW TAF UTC NOAA

Error!

Example: see airport list